createdAt,value
2022-08-22T00:01:27.818Z,19.90
2022-08-22T00:02:49.712Z,21.10
2022-08-22T00:02:56.170Z,21.00
2022-08-22T00:02:59.617Z,23.50
2022-08-22T00:04:01.830Z,19.80
2022-08-22T00:06:35.072Z,19.80
2022-08-22T00:09:12.720Z,19.80
2022-08-22T00:11:44.642Z,19.80
2022-08-22T00:14:18.528Z,19.80
2022-08-22T00:16:51.412Z,19.80
2022-08-22T00:19:24.653Z,19.70
2022-08-22T00:21:58.698Z,19.60
2022-08-22T00:24:29.976Z,19.60
2022-08-22T00:27:01.997Z,19.60
2022-08-22T00:29:34.469Z,19.60
2022-08-22T00:32:12.581Z,19.60
2022-08-22T00:34:44.521Z,19.60
2022-08-22T00:37:19.127Z,19.60
2022-08-22T00:39:50.759Z,19.60
2022-08-22T00:42:29.093Z,19.50
2022-08-22T00:45:18.399Z,19.50
2022-08-22T00:47:49.425Z,19.30
2022-08-22T00:50:28.536Z,19.30
2022-08-22T00:53:13.694Z,19.30
2022-08-22T00:55:51.216Z,19.30
2022-08-22T00:58:33.917Z,19.30
2022-08-22T01:01:06.786Z,19.30
2022-08-22T01:04:01.750Z,19.30
2022-08-22T01:06:33.781Z,19.30
2022-08-22T01:09:05.708Z,19.20
2022-08-22T01:11:54.575Z,19.20
2022-08-22T01:14:34.775Z,19.20
2022-08-22T01:17:20.976Z,19.10
2022-08-22T01:20:07.123Z,19.00
2022-08-22T01:22:58.589Z,19.00
2022-08-22T01:25:56.692Z,19.00
2022-08-22T01:28:47.141Z,18.90
2022-08-22T01:31:35.244Z,18.90
2022-08-22T01:34:27.127Z,18.90
2022-08-22T01:37:10.040Z,18.80
2022-08-22T01:39:52.768Z,18.70
2022-08-22T01:42:38.608Z,18.50
2022-08-22T01:45:24.803Z,18.50
2022-08-22T01:47:56.459Z,18.50
2022-08-22T01:50:26.419Z,18.50
2022-08-22T01:52:59.888Z,18.50
2022-08-22T01:55:33.038Z,18.50
2022-08-22T01:58:02.032Z,18.40
2022-08-22T02:00:34.899Z,18.40
2022-08-22T02:03:21.137Z,18.20
2022-08-22T02:05:51.081Z,18.30
2022-08-22T02:08:22.854Z,18.20
2022-08-22T02:10:58.469Z,18.20
2022-08-22T02:13:46.560Z,18.20
2022-08-22T02:16:16.844Z,18.20
2022-08-22T02:18:51.380Z,18.20
2022-08-22T02:21:27.404Z,18.20
2022-08-22T02:23:58.141Z,18.20
2022-08-22T02:26:29.773Z,18.00
2022-08-22T02:28:59.788Z,18.00
2022-08-22T02:31:38.179Z,17.90
2022-08-22T02:34:20.508Z,17.90
2022-08-22T02:36:51.434Z,18.10
2022-08-22T02:39:22.764Z,18.10
2022-08-22T02:41:52.433Z,18.20
2022-08-22T02:44:22.309Z,18.10
2022-08-22T02:46:52.580Z,18.20
2022-08-22T02:49:27.334Z,18.20
2022-08-22T02:51:59.309Z,18.20
2022-08-22T02:54:31.487Z,18.20
2022-08-22T02:57:02.624Z,18.20
2022-08-22T02:59:35.381Z,18.20
2022-08-22T03:02:21.741Z,18.30
2022-08-22T03:04:54.080Z,18.20
2022-08-22T03:07:27.808Z,18.30
2022-08-22T03:10:00.453Z,18.20
2022-08-22T03:12:32.162Z,18.30
2022-08-22T03:15:03.306Z,18.30
2022-08-22T03:17:33.235Z,18.30
2022-08-22T03:20:06.366Z,18.30
2022-08-22T03:22:38.953Z,18.20
2022-08-22T03:25:11.415Z,18.30
2022-08-22T03:27:42.325Z,18.30
2022-08-22T03:30:12.876Z,18.30
2022-08-22T03:32:51.976Z,18.40
2022-08-22T03:35:31.275Z,18.40
2022-08-22T03:38:12.343Z,18.30
2022-08-22T03:40:47.334Z,18.40
2022-08-22T03:43:34.668Z,18.40
2022-08-22T03:46:18.614Z,18.30
2022-08-22T03:48:57.623Z,18.30
2022-08-22T03:51:34.124Z,18.30
2022-08-22T03:54:14.897Z,18.30
2022-08-22T03:57:07.597Z,18.30
2022-08-22T03:59:50.589Z,18.40
2022-08-22T04:02:43.242Z,18.40
2022-08-22T04:05:29.749Z,18.40
2022-08-22T04:08:13.833Z,18.40
2022-08-22T04:11:02.412Z,18.30
2022-08-22T04:13:50.647Z,18.30
2022-08-22T04:16:36.852Z,18.40
2022-08-22T04:19:18.164Z,18.30
2022-08-22T04:22:09.815Z,18.30
2022-08-22T04:24:44.480Z,18.30
2022-08-22T04:27:22.462Z,18.30
2022-08-22T04:29:54.281Z,18.30
2022-08-22T04:32:26.016Z,18.30
2022-08-22T04:34:55.881Z,18.30
2022-08-22T04:37:26.200Z,18.30
2022-08-22T04:39:58.308Z,18.30
2022-08-22T04:42:32.643Z,18.20
2022-08-22T04:45:03.273Z,18.20
2022-08-22T04:47:33.064Z,18.20
2022-08-22T04:50:04.297Z,18.30
2022-08-22T04:52:36.558Z,18.30
2022-08-22T04:55:12.037Z,18.30
2022-08-22T04:57:46.513Z,18.30
2022-08-22T05:00:16.008Z,18.20
2022-08-22T05:02:48.322Z,18.20
2022-08-22T05:05:21.927Z,18.20
2022-08-22T05:07:51.746Z,18.30
2022-08-22T05:10:23.059Z,18.30
2022-08-22T05:12:54.450Z,18.40
2022-08-22T05:15:23.946Z,18.40
2022-08-22T05:17:54.290Z,18.40
2022-08-22T05:20:23.596Z,18.40
2022-08-22T05:22:52.534Z,18.40
2022-08-22T05:25:24.894Z,18.40
2022-08-22T05:27:56.232Z,18.40
2022-08-22T05:30:25.859Z,18.40
2022-08-22T05:32:55.298Z,18.40
2022-08-22T05:35:28.991Z,18.50
2022-08-22T05:37:57.359Z,18.50
2022-08-22T05:40:27.962Z,18.50
2022-08-22T05:42:57.325Z,18.60
2022-08-22T05:45:26.361Z,18.60
2022-08-22T05:47:58.074Z,18.70
2022-08-22T05:50:43.188Z,18.70
2022-08-22T05:53:12.860Z,18.80
2022-08-22T05:55:47.649Z,18.80
2022-08-22T05:58:40.272Z,18.80
2022-08-22T06:01:16.883Z,18.90
2022-08-22T06:03:51.068Z,18.90
2022-08-22T06:06:20.925Z,19.00
2022-08-22T06:08:53.520Z,19.00
2022-08-22T06:11:26.721Z,19.00
2022-08-22T06:14:07.820Z,19.00
2022-08-22T06:16:39.123Z,19.00
2022-08-22T06:19:19.493Z,19.00
2022-08-22T06:21:49.301Z,19.00
2022-08-22T06:24:21.243Z,19.10
2022-08-22T06:26:51.825Z,19.10
2022-08-22T06:29:23.008Z,19.10
2022-08-22T06:31:50.955Z,19.20
2022-08-22T06:34:23.030Z,19.20
2022-08-22T06:36:52.058Z,19.30
2022-08-22T06:39:21.802Z,19.30
2022-08-22T06:41:53.751Z,19.30
2022-08-22T06:44:23.483Z,19.30
2022-08-22T06:46:53.432Z,19.40
2022-08-22T06:49:23.049Z,19.40
2022-08-22T06:51:51.907Z,19.40
2022-08-22T06:54:20.576Z,19.40
2022-08-22T06:56:50.154Z,19.40
2022-08-22T06:59:23.663Z,19.40
2022-08-22T07:01:54.089Z,19.50
2022-08-22T07:04:23.943Z,19.60
2022-08-22T07:06:52.191Z,19.60
2022-08-22T07:09:23.182Z,19.60
2022-08-22T07:11:52.366Z,19.60
2022-08-22T07:14:28.783Z,19.70
2022-08-22T07:16:57.747Z,19.70
2022-08-22T07:19:26.778Z,19.70
2022-08-22T07:21:55.057Z,19.80
2022-08-22T07:24:25.184Z,19.80
2022-08-22T07:27:04.788Z,19.80
2022-08-22T07:29:39.301Z,19.90
2022-08-22T07:32:10.797Z,19.90
2022-08-22T07:34:44.658Z,20.00
2022-08-22T07:37:16.303Z,20.00
2022-08-22T07:39:50.352Z,20.00
2022-08-22T07:42:19.708Z,20.10
2022-08-22T07:45:07.064Z,20.10
2022-08-22T07:47:41.472Z,20.20
2022-08-22T07:50:13.284Z,20.20
2022-08-22T07:52:42.437Z,20.30
2022-08-22T07:55:16.718Z,20.30
2022-08-22T07:57:46.227Z,20.30
2022-08-22T08:00:17.020Z,20.40
2022-08-22T08:02:46.518Z,20.50
2022-08-22T08:05:15.421Z,20.40
2022-08-22T08:07:45.116Z,20.40
2022-08-22T08:10:14.488Z,20.50
2022-08-22T08:12:44.563Z,20.70
2022-08-22T08:15:27.813Z,20.70
2022-08-22T08:17:59.893Z,20.90
2022-08-22T08:20:28.905Z,21.00
2022-08-22T08:22:57.590Z,21.10
2022-08-22T08:25:28.071Z,21.10
2022-08-22T08:28:13.810Z,21.20
2022-08-22T08:30:45.456Z,21.30
2022-08-22T08:33:26.041Z,21.40
2022-08-22T08:36:03.310Z,21.60
2022-08-22T08:38:33.600Z,21.70
2022-08-22T08:41:12.350Z,21.70
2022-08-22T08:43:47.922Z,21.90
2022-08-22T08:46:41.855Z,22.00
2022-08-22T08:49:42.055Z,22.10
2022-08-22T08:52:21.422Z,22.40
2022-08-22T08:55:20.058Z,22.70
2022-08-22T08:57:55.014Z,23.00
2022-08-22T09:00:29.071Z,23.20
2022-08-22T09:03:09.353Z,23.40
2022-08-22T09:06:02.390Z,23.50
2022-08-22T09:08:55.653Z,23.60
2022-08-22T09:11:38.701Z,23.80
2022-08-22T09:14:13.189Z,23.70
2022-08-22T09:16:51.912Z,24.00
2022-08-22T09:19:31.018Z,24.40
2022-08-22T09:22:05.810Z,24.60
2022-08-22T09:25:06.057Z,24.60
2022-08-22T09:27:36.810Z,24.60
2022-08-22T09:30:07.261Z,24.60
2022-08-22T09:32:44.067Z,25.00
2022-08-22T09:35:17.573Z,25.30
2022-08-22T09:38:00.532Z,25.50
2022-08-22T09:40:30.751Z,25.60
2022-08-22T09:43:02.505Z,25.70
2022-08-22T09:45:52.303Z,25.80
2022-08-22T09:48:26.639Z,25.90
2022-08-22T09:51:08.401Z,26.00
2022-08-22T09:53:56.092Z,25.70
2022-08-22T09:56:29.781Z,26.20
2022-08-22T09:59:01.202Z,26.20
2022-08-22T10:01:32.590Z,26.60
2022-08-22T10:04:19.846Z,27.10
2022-08-22T10:06:54.651Z,27.50
2022-08-22T10:09:31.437Z,27.50
2022-08-22T10:12:03.026Z,27.90
2022-08-22T10:14:50.652Z,27.70
2022-08-22T10:17:21.872Z,28.20
2022-08-22T10:19:53.186Z,28.90
2022-08-22T10:22:29.842Z,28.40
2022-08-22T10:25:02.976Z,28.30
2022-08-22T10:27:38.552Z,29.00
2022-08-22T10:30:09.219Z,29.50
2022-08-22T10:32:39.202Z,30.10
2022-08-22T10:35:15.304Z,30.20
2022-08-22T10:37:50.364Z,30.00
2022-08-22T10:40:20.452Z,30.10
2022-08-22T10:42:53.538Z,29.30
2022-08-22T10:45:36.084Z,29.80
2022-08-22T10:48:23.682Z,30.20
2022-08-22T10:50:56.297Z,30.00
2022-08-22T10:53:34.768Z,29.50
2022-08-22T10:56:11.372Z,29.60
2022-08-22T10:58:41.390Z,30.00
2022-08-22T11:01:38.461Z,30.00
2022-08-22T11:04:05.855Z,30.70
2022-08-22T11:06:40.171Z,31.20
2022-08-22T11:09:22.285Z,31.50
2022-08-22T11:11:56.148Z,31.70
2022-08-22T11:14:38.504Z,32.30
2022-08-22T11:17:30.240Z,32.70
2022-08-22T11:20:19.707Z,32.50
2022-08-22T11:22:51.919Z,33.30
2022-08-22T11:25:41.163Z,33.00
2022-08-22T11:28:23.862Z,32.50
2022-08-22T11:30:58.858Z,33.00
2022-08-22T11:33:46.747Z,33.50
2022-08-22T11:36:36.454Z,33.50
2022-08-22T11:39:13.794Z,32.10
2022-08-22T11:41:53.200Z,33.00
2022-08-22T11:44:25.694Z,32.90
2022-08-22T11:46:55.084Z,32.60
2022-08-22T11:49:40.665Z,33.40
2022-08-22T11:52:22.566Z,34.10
2022-08-22T11:55:08.616Z,33.30
2022-08-22T11:57:41.770Z,32.80
2022-08-22T12:00:20.874Z,32.10
2022-08-22T12:02:59.032Z,31.40
2022-08-22T12:05:30.480Z,31.30
2022-08-22T12:08:05.200Z,32.10
2022-08-22T12:10:34.789Z,32.60
2022-08-22T12:13:08.451Z,32.30
2022-08-22T12:15:41.350Z,32.30
2022-08-22T12:18:27.678Z,32.50
2022-08-22T12:21:04.487Z,32.40
2022-08-22T12:23:49.326Z,32.90
2022-08-22T12:26:23.831Z,32.80
2022-08-22T12:29:00.160Z,32.50
2022-08-22T12:31:36.103Z,32.60
2022-08-22T12:34:13.949Z,32.70
2022-08-22T12:37:05.928Z,32.90
2022-08-22T12:39:46.299Z,33.10
2022-08-22T12:42:28.193Z,33.30
2022-08-22T12:45:08.520Z,33.30
2022-08-22T12:47:42.257Z,33.10
2022-08-22T12:50:23.868Z,33.60
2022-08-22T12:52:57.148Z,33.70
2022-08-22T12:55:31.311Z,34.20
2022-08-22T12:58:06.998Z,34.10
2022-08-22T13:00:40.244Z,34.90
2022-08-22T13:03:12.000Z,35.30
2022-08-22T13:05:41.336Z,34.10
2022-08-22T13:08:10.621Z,34.70
2022-08-22T13:10:42.722Z,35.70
2022-08-22T13:13:14.687Z,35.80
2022-08-22T13:15:53.583Z,36.00
2022-08-22T13:18:29.795Z,35.80
2022-08-22T13:20:59.932Z,35.20
2022-08-22T13:23:29.997Z,35.70
2022-08-22T13:26:01.960Z,35.20
2022-08-22T13:28:32.318Z,35.40
2022-08-22T13:31:02.909Z,35.50
2022-08-22T13:33:33.396Z,35.80
2022-08-22T13:36:04.173Z,35.70
2022-08-22T13:38:34.104Z,36.60
2022-08-22T13:41:03.304Z,36.90
2022-08-22T13:43:34.779Z,37.00
2022-08-22T13:46:05.626Z,36.60
2022-08-22T13:48:46.961Z,37.10
2022-08-22T13:51:17.605Z,37.30
2022-08-22T13:54:00.763Z,36.60
2022-08-22T13:56:31.367Z,36.60
2022-08-22T13:59:00.257Z,37.00
2022-08-22T14:01:44.442Z,37.10
2022-08-22T14:04:28.348Z,37.00
2022-08-22T14:07:17.795Z,36.90
2022-08-22T14:09:55.812Z,36.50
2022-08-22T14:12:25.561Z,36.00
2022-08-22T14:14:56.427Z,36.40
2022-08-22T14:17:29.333Z,36.40
2022-08-22T14:20:01.581Z,35.60
2022-08-22T14:22:35.195Z,35.80
2022-08-22T14:25:07.212Z,36.00
2022-08-22T14:27:36.569Z,36.30
2022-08-22T14:30:14.047Z,33.90
2022-08-22T14:32:46.870Z,33.50
2022-08-22T14:35:25.718Z,32.80
2022-08-22T14:38:17.838Z,32.70
2022-08-22T14:40:46.785Z,32.80
2022-08-22T14:43:22.522Z,33.40
2022-08-22T14:45:56.358Z,33.80
2022-08-22T14:48:30.921Z,34.70
2022-08-22T14:51:03.928Z,35.00
2022-08-22T14:53:33.093Z,35.00
2022-08-22T14:56:02.364Z,35.00
2022-08-22T14:58:32.378Z,34.80
2022-08-22T15:01:09.811Z,34.40
2022-08-22T15:03:40.453Z,33.90
2022-08-22T15:06:12.486Z,34.00
2022-08-22T15:08:42.291Z,34.40
2022-08-22T15:11:20.654Z,34.90
2022-08-22T15:13:54.152Z,34.80
2022-08-22T15:16:23.514Z,34.40
2022-08-22T15:18:52.761Z,34.00
2022-08-22T15:21:24.481Z,33.80
2022-08-22T15:23:53.973Z,33.70
2022-08-22T15:26:28.106Z,34.00
2022-08-22T15:28:58.097Z,34.10
2022-08-22T15:31:26.105Z,33.50
2022-08-22T15:34:06.043Z,33.30
2022-08-22T15:36:33.962Z,33.00
2022-08-22T15:39:17.740Z,33.20
2022-08-22T15:41:46.183Z,33.30
2022-08-22T15:44:32.371Z,33.50
2022-08-22T15:47:10.813Z,33.50
2022-08-22T15:49:55.651Z,33.50
2022-08-22T15:52:28.646Z,33.60
2022-08-22T15:55:17.076Z,33.60
2022-08-22T15:57:51.196Z,33.40
2022-08-22T16:00:28.209Z,33.10
2022-08-22T16:02:58.270Z,32.90
2022-08-22T16:05:38.304Z,32.90
2022-08-22T16:08:07.097Z,32.70
2022-08-22T16:10:38.541Z,32.70
2022-08-22T16:13:12.045Z,32.50
2022-08-22T16:15:56.693Z,32.30
2022-08-22T16:18:43.685Z,32.20
2022-08-22T16:21:13.619Z,32.10
2022-08-22T16:24:11.482Z,31.90
2022-08-22T16:26:40.583Z,31.80
2022-08-22T16:29:28.457Z,31.40
2022-08-22T16:31:59.516Z,31.50
2022-08-22T16:34:39.158Z,31.00
2022-08-22T16:37:25.413Z,31.00
2022-08-22T16:40:07.466Z,31.10
2022-08-22T16:42:37.785Z,31.30
2022-08-22T16:45:26.389Z,31.30
2022-08-22T16:47:58.634Z,31.30
2022-08-22T16:50:33.613Z,31.00
2022-08-22T16:53:07.268Z,31.00
2022-08-22T16:55:50.206Z,31.10
2022-08-22T16:58:56.599Z,31.10
2022-08-22T17:01:35.760Z,31.10
2022-08-22T17:04:10.307Z,31.00
2022-08-22T17:06:52.988Z,31.00
2022-08-22T17:09:30.336Z,31.00
2022-08-22T17:12:04.238Z,30.80
2022-08-22T17:14:35.734Z,30.70
2022-08-22T17:17:13.564Z,30.60
2022-08-22T17:19:46.367Z,30.30
2022-08-22T17:22:19.777Z,30.00
2022-08-22T17:24:50.341Z,30.00
2022-08-22T17:27:24.388Z,29.80
2022-08-22T17:30:00.158Z,29.80
2022-08-22T17:32:33.363Z,29.80
2022-08-22T17:35:08.085Z,29.70
2022-08-22T17:37:50.035Z,29.70
2022-08-22T17:40:22.462Z,29.70
2022-08-22T17:43:00.576Z,29.70
2022-08-22T17:45:34.102Z,29.60
2022-08-22T17:48:06.474Z,29.50
2022-08-22T17:50:37.844Z,29.40
2022-08-22T17:53:07.813Z,29.20
2022-08-22T17:55:40.417Z,29.20
2022-08-22T17:58:35.745Z,29.00
2022-08-22T18:01:08.281Z,28.90
2022-08-22T18:03:38.066Z,28.80
2022-08-22T18:06:07.871Z,28.70
2022-08-22T18:11:31.805Z,28.40
2022-08-22T18:14:13.091Z,28.30
2022-08-22T18:16:44.620Z,28.10
2022-08-22T18:19:18.103Z,28.10
2022-08-22T18:21:50.208Z,28.00
2022-08-22T18:24:20.561Z,27.90
2022-08-22T18:26:52.996Z,27.80
2022-08-22T18:29:23.899Z,27.60
2022-08-22T18:31:55.022Z,27.50
2022-08-22T18:34:27.219Z,27.50
2022-08-22T18:36:58.531Z,27.40
2022-08-22T18:39:29.656Z,27.30
2022-08-22T18:42:01.211Z,27.30
2022-08-22T18:44:31.496Z,27.10
2022-08-22T18:47:00.420Z,27.10
2022-08-22T18:49:38.278Z,27.00
2022-08-22T18:52:14.488Z,26.80
2022-08-22T18:54:47.768Z,26.70
2022-08-22T18:57:30.801Z,26.60
2022-08-22T19:00:06.732Z,26.50
2022-08-22T19:02:56.121Z,26.30
2022-08-22T19:05:39.004Z,26.20
2022-08-22T19:08:27.829Z,26.10
2022-08-22T19:11:04.723Z,25.90
2022-08-22T19:13:55.323Z,25.90
2022-08-22T19:16:39.121Z,25.80
2022-08-22T19:19:08.829Z,25.60
2022-08-22T19:22:17.946Z,25.50
2022-08-22T19:25:04.720Z,25.50
2022-08-22T19:27:39.535Z,25.40
2022-08-22T19:30:08.722Z,25.30
2022-08-22T19:32:55.538Z,25.20
2022-08-22T19:35:36.517Z,25.10
2022-08-22T19:38:06.165Z,25.00
2022-08-22T19:40:54.518Z,25.00
2022-08-22T19:43:28.217Z,24.90
2022-08-22T19:45:56.517Z,24.80
2022-08-22T19:48:27.286Z,24.70
2022-08-22T19:51:10.659Z,24.70
2022-08-22T19:53:43.062Z,24.70
2022-08-22T19:56:18.907Z,24.60
2022-08-22T19:58:55.989Z,24.50
2022-08-22T20:01:29.902Z,24.40
2022-08-22T20:04:00.053Z,24.10
2022-08-22T20:06:44.027Z,24.00
2022-08-22T20:09:20.195Z,24.00
2022-08-22T20:11:57.396Z,24.00
2022-08-22T20:14:30.524Z,23.90
2022-08-22T20:17:01.215Z,23.90
2022-08-22T20:19:37.037Z,23.90
2022-08-22T20:22:09.014Z,23.90
2022-08-22T20:24:40.222Z,23.60
2022-08-22T20:27:14.552Z,23.40
2022-08-22T20:29:46.596Z,23.40
2022-08-22T20:32:16.367Z,23.50
2022-08-22T20:34:44.525Z,23.30
2022-08-22T20:37:45.314Z,23.30
2022-08-22T20:40:24.442Z,23.40
2022-08-22T20:43:10.743Z,23.30
2022-08-22T20:45:43.673Z,23.20
2022-08-22T20:48:12.147Z,23.10
2022-08-22T20:50:40.050Z,23.10
2022-08-22T20:53:12.619Z,23.00
2022-08-22T20:55:40.519Z,23.00
2022-08-22T20:58:21.512Z,22.80
2022-08-22T21:00:52.153Z,22.60
2022-08-22T21:03:28.988Z,22.60
2022-08-22T21:05:56.852Z,22.70
2022-08-22T21:08:27.095Z,22.60
2022-08-22T21:11:14.970Z,22.60
2022-08-22T21:13:42.760Z,22.60
2022-08-22T21:16:13.298Z,22.50
2022-08-22T21:18:42.029Z,22.30
2022-08-22T21:21:17.600Z,22.30
2022-08-22T21:23:49.156Z,22.30
2022-08-22T21:26:22.531Z,22.30
2022-08-22T21:28:56.405Z,22.20
2022-08-22T21:31:25.593Z,22.20
2022-08-22T21:33:55.003Z,22.10
2022-08-22T21:36:25.149Z,22.00
2022-08-22T21:38:56.226Z,21.90
2022-08-22T21:41:31.953Z,21.80
2022-08-22T21:44:14.654Z,21.80
2022-08-22T21:46:42.518Z,21.70
2022-08-22T21:49:21.102Z,21.70
2022-08-22T21:51:49.229Z,21.60
2022-08-22T21:54:33.149Z,21.40
2022-08-22T21:57:14.995Z,21.30
2022-08-22T21:59:51.753Z,21.40
2022-08-22T22:02:28.948Z,21.40
2022-08-22T22:04:59.468Z,21.30
2022-08-22T22:07:27.675Z,21.20
2022-08-22T22:09:57.129Z,21.20
2022-08-22T22:12:25.511Z,21.30
2022-08-22T22:14:53.471Z,21.20
2022-08-22T22:17:21.483Z,21.00
2022-08-22T22:19:49.531Z,20.90
2022-08-22T22:22:17.633Z,21.00
2022-08-22T22:24:45.453Z,20.90
2022-08-22T22:27:17.097Z,20.90
2022-08-22T22:29:45.120Z,20.70
2022-08-22T22:32:13.000Z,20.60
2022-08-22T22:34:40.875Z,20.60
2022-08-22T22:37:09.286Z,20.60
2022-08-22T22:39:38.630Z,20.60
2022-08-22T22:42:06.783Z,20.60
2022-08-22T22:44:35.961Z,20.60
2022-08-22T22:47:03.968Z,20.60
2022-08-22T22:49:32.901Z,20.60
2022-08-22T22:52:01.055Z,20.60
2022-08-22T22:54:29.713Z,20.50
2022-08-22T22:56:58.626Z,20.50
2022-08-22T22:59:26.536Z,20.50
2022-08-22T23:02:03.168Z,20.40
2022-08-22T23:04:31.700Z,20.40
2022-08-22T23:06:59.783Z,20.30
2022-08-22T23:09:28.224Z,20.30
2022-08-22T23:12:07.083Z,20.00
2022-08-22T23:14:34.956Z,20.00
2022-08-22T23:17:04.890Z,19.90
2022-08-22T23:19:32.765Z,20.00
2022-08-22T23:22:01.112Z,20.00
2022-08-22T23:24:29.649Z,20.00
2022-08-22T23:26:57.929Z,20.00
2022-08-22T23:29:25.890Z,20.00
2022-08-22T23:31:54.630Z,19.80
2022-08-22T23:34:25.126Z,19.80
2022-08-22T23:36:53.825Z,19.80
2022-08-22T23:39:22.461Z,19.80
2022-08-22T23:41:50.914Z,19.80
2022-08-22T23:44:19.817Z,19.80
2022-08-22T23:46:47.927Z,19.70
2022-08-22T23:49:16.170Z,19.70
2022-08-22T23:51:45.852Z,19.70
2022-08-22T23:54:14.101Z,19.70
2022-08-22T23:56:42.952Z,19.60
2022-08-22T23:59:12.231Z,19.60
